createdAt,value
2018-09-01T00:01:32.205Z,13.00
2018-09-01T00:04:01.445Z,13.00
2018-09-01T00:06:30.658Z,13.00
2018-09-01T00:08:59.801Z,13.00
2018-09-01T00:11:28.909Z,13.00
2018-09-01T00:13:58.012Z,13.10
2018-09-01T00:16:27.145Z,13.10
2018-09-01T00:18:56.432Z,13.20
2018-09-01T00:21:26.672Z,13.20
2018-09-01T00:23:55.814Z,13.20
2018-09-01T00:26:24.888Z,13.20
2018-09-01T00:28:54.065Z,13.20
2018-09-01T00:31:23.209Z,13.10
2018-09-01T00:33:52.467Z,13.10
2018-09-01T00:36:21.589Z,13.00
2018-09-01T00:38:56.265Z,13.00
2018-09-01T00:41:25.941Z,12.90
2018-09-01T00:43:55.119Z,12.80
2018-09-01T00:46:24.394Z,12.90
2018-09-01T00:48:53.554Z,12.80
2018-09-01T00:51:22.976Z,12.90
2018-09-01T00:53:52.114Z,12.90
2018-09-01T00:56:21.259Z,12.80
2018-09-01T00:58:50.472Z,12.80
2018-09-01T01:01:19.690Z,12.70
2018-09-01T01:03:48.861Z,12.60
2018-09-01T01:06:19.136Z,12.70
2018-09-01T01:08:48.299Z,12.70
2018-09-01T01:11:17.774Z,12.80
2018-09-01T01:13:47.448Z,12.80
2018-09-01T01:16:16.929Z,12.90
2018-09-01T01:18:46.233Z,12.90
2018-09-01T01:21:15.487Z,12.90
2018-09-01T01:23:44.610Z,12.80
2018-09-01T01:26:13.873Z,12.80
2018-09-01T01:28:43.050Z,12.90
2018-09-01T01:31:12.277Z,12.90
2018-09-01T01:33:41.479Z,13.00
2018-09-01T01:36:10.730Z,12.90
2018-09-01T01:38:39.942Z,12.90
2018-09-01T01:41:09.304Z,12.90
2018-09-01T01:43:38.461Z,13.00
2018-09-01T01:46:07.577Z,13.10
2018-09-01T01:48:37.399Z,13.00
2018-09-01T01:51:06.575Z,13.10
2018-09-01T01:53:35.803Z,13.10
2018-09-01T01:56:04.902Z,13.00
2018-09-01T01:58:34.018Z,13.00
2018-09-01T02:01:03.119Z,13.00
2018-09-01T02:03:32.238Z,13.00
2018-09-01T02:06:01.395Z,13.10
2018-09-01T02:08:30.566Z,13.10
2018-09-01T02:10:59.745Z,13.20
2018-09-01T02:13:28.915Z,13.10
2018-09-01T02:15:58.193Z,13.20
2018-09-01T02:18:27.425Z,13.20
2018-09-01T02:20:56.612Z,13.20
2018-09-01T02:23:25.867Z,13.20
2018-09-01T02:25:55.070Z,13.20
2018-09-01T02:28:24.284Z,13.20
2018-09-01T02:30:53.465Z,13.00
2018-09-01T02:33:22.776Z,13.10
2018-09-01T02:35:51.985Z,13.20
2018-09-01T02:38:21.140Z,13.20
2018-09-01T02:40:50.381Z,13.20
2018-09-01T02:43:19.732Z,13.20
2018-09-01T02:45:48.860Z,13.10
2018-09-01T02:48:18.169Z,13.20
2018-09-01T02:50:47.307Z,13.10
2018-09-01T02:53:16.469Z,13.10
2018-09-01T02:55:45.713Z,13.10
2018-09-01T02:58:14.912Z,13.20
2018-09-01T03:00:44.211Z,13.20
2018-09-01T03:03:13.417Z,13.20
2018-09-01T03:05:43.344Z,13.20
2018-09-01T03:08:12.479Z,13.20
2018-09-01T03:10:41.712Z,13.10
2018-09-01T03:13:11.530Z,13.00
2018-09-01T03:15:40.774Z,13.00
2018-09-01T03:18:11.014Z,13.10
2018-09-01T03:20:40.190Z,13.20
2018-09-01T03:23:09.415Z,13.00
2018-09-01T03:25:38.750Z,13.10
2018-09-01T03:28:07.845Z,13.10
2018-09-01T03:30:37.045Z,13.20
2018-09-01T03:33:06.257Z,13.20
2018-09-01T03:35:35.537Z,13.20
2018-09-01T03:38:04.766Z,13.20
2018-09-01T03:40:33.951Z,13.20
2018-09-01T03:43:03.110Z,13.20
2018-09-01T03:45:32.721Z,13.20
2018-09-01T03:48:02.464Z,13.20
2018-09-01T03:50:31.527Z,13.20
2018-09-01T03:53:00.656Z,13.20
2018-09-01T03:55:29.779Z,13.20
2018-09-01T03:57:58.965Z,13.20
2018-09-01T04:00:28.066Z,13.20
2018-09-01T04:02:58.097Z,13.20
2018-09-01T04:05:27.584Z,13.20
2018-09-01T04:07:56.680Z,13.20
2018-09-01T04:10:25.783Z,13.20
2018-09-01T04:12:54.888Z,13.20
2018-09-01T04:15:23.982Z,13.20
2018-09-01T04:17:53.102Z,13.30
2018-09-01T04:20:22.250Z,13.20
2018-09-01T04:22:51.427Z,13.30
2018-09-01T04:25:20.528Z,13.20
2018-09-01T04:27:49.627Z,13.30
2018-09-01T04:30:18.724Z,13.20
2018-09-01T04:32:47.872Z,13.20
2018-09-01T04:35:16.916Z,13.20
2018-09-01T04:37:46.072Z,13.20
2018-09-01T04:40:15.181Z,13.20
2018-09-01T04:42:44.281Z,13.20
2018-09-01T04:45:13.358Z,13.30
2018-09-01T04:47:42.751Z,13.30
2018-09-01T04:50:11.992Z,13.30
2018-09-01T04:52:41.096Z,13.30
2018-09-01T04:55:10.189Z,13.40
2018-09-01T04:57:39.340Z,13.40
2018-09-01T05:00:09.195Z,13.30
2018-09-01T05:02:38.303Z,13.30
2018-09-01T05:05:07.499Z,13.30
2018-09-01T05:07:36.582Z,13.30
2018-09-01T05:10:05.755Z,13.20
2018-09-01T05:12:34.880Z,13.20
2018-09-01T05:15:04.011Z,13.20
2018-09-01T05:17:33.105Z,13.20
2018-09-01T05:20:02.210Z,13.20
2018-09-01T05:22:31.437Z,13.20
2018-09-01T05:25:00.632Z,13.30
2018-09-01T05:27:29.731Z,13.30
2018-09-01T05:29:58.867Z,13.30
2018-09-01T05:32:27.990Z,13.30
2018-09-01T05:34:57.177Z,13.30
2018-09-01T05:37:26.392Z,13.30
2018-09-01T05:39:55.522Z,13.30
2018-09-01T05:42:24.630Z,13.40
2018-09-01T05:44:53.711Z,13.40
2018-09-01T05:47:22.818Z,13.40
2018-09-01T05:49:52.034Z,13.40
2018-09-01T05:52:21.264Z,13.40
2018-09-01T05:54:50.466Z,13.50
2018-09-01T05:57:19.554Z,13.50
2018-09-01T05:59:48.672Z,13.50
2018-09-01T06:02:17.847Z,13.40
2018-09-01T06:04:46.983Z,13.50
2018-09-01T06:07:16.107Z,13.40
2018-09-01T06:09:45.214Z,13.50
2018-09-01T06:12:14.367Z,13.50
2018-09-01T06:14:44.056Z,13.50
2018-09-01T06:17:13.128Z,13.50
2018-09-01T06:19:42.236Z,13.60
2018-09-01T06:22:11.376Z,13.60
2018-09-01T06:24:40.440Z,13.60
2018-09-01T06:27:14.860Z,13.70
2018-09-01T06:29:44.000Z,13.70
2018-09-01T06:32:13.137Z,13.70
2018-09-01T06:34:42.278Z,13.70
2018-09-01T06:37:11.427Z,13.70
2018-09-01T06:39:40.560Z,13.70
2018-09-01T06:42:09.664Z,13.70
2018-09-01T06:44:38.733Z,13.70
2018-09-01T06:47:07.893Z,13.60
2018-09-01T06:49:37.030Z,13.70
2018-09-01T06:52:06.361Z,13.70
2018-09-01T06:54:35.436Z,13.60
2018-09-01T06:57:04.618Z,13.60
2018-09-01T06:59:33.698Z,13.50
2018-09-01T07:02:02.987Z,13.60
2018-09-01T07:04:32.059Z,13.60
2018-09-01T07:07:01.727Z,13.70
2018-09-01T07:09:30.855Z,13.80
2018-09-01T07:12:01.235Z,13.70
2018-09-01T07:14:30.372Z,13.70
2018-09-01T07:16:59.460Z,13.70
2018-09-01T07:19:28.525Z,13.70
2018-09-01T07:21:57.647Z,13.80
2018-09-01T07:24:26.763Z,13.80
2018-09-01T07:26:55.851Z,13.80
2018-09-01T07:29:24.969Z,13.80
2018-09-01T07:31:54.077Z,13.90
2018-09-01T07:34:23.254Z,13.80
2018-09-01T07:36:52.361Z,13.80
2018-09-01T07:39:21.444Z,13.80
2018-09-01T07:41:50.553Z,13.90
2018-09-01T07:44:19.649Z,14.00
2018-09-01T07:46:48.809Z,14.00
2018-09-01T07:49:17.897Z,14.10
2018-09-01T07:51:47.022Z,14.30
2018-09-01T07:54:16.535Z,14.40
2018-09-01T07:56:45.573Z,14.40
2018-09-01T07:59:14.678Z,14.50
2018-09-01T08:01:43.756Z,14.50
2018-09-01T08:04:12.859Z,14.60
2018-09-01T08:06:41.935Z,14.60
2018-09-01T08:09:12.041Z,14.60
2018-09-01T08:11:41.138Z,14.60
2018-09-01T08:14:10.586Z,14.60
2018-09-01T08:16:39.572Z,14.70
2018-09-01T08:19:08.685Z,14.70
2018-09-01T08:21:37.777Z,14.70
2018-09-01T08:24:06.852Z,14.70
2018-09-01T08:26:35.974Z,14.80
2018-09-01T08:29:05.415Z,14.80
2018-09-01T08:31:34.503Z,14.80
2018-09-01T08:34:03.614Z,14.70
2018-09-01T08:36:32.703Z,14.80
2018-09-01T08:39:01.818Z,14.90
2018-09-01T08:41:30.919Z,15.00
2018-09-01T08:44:00.040Z,15.00
2018-09-01T08:46:29.129Z,15.10
2018-09-01T08:48:58.211Z,15.00
2018-09-01T08:51:27.345Z,15.00
2018-09-01T08:53:56.393Z,15.00
2018-09-01T08:56:26.129Z,15.10
2018-09-01T08:58:55.225Z,15.10
2018-09-01T09:01:24.327Z,15.10
2018-09-01T09:03:53.389Z,15.10
2018-09-01T09:06:22.461Z,15.20
2018-09-01T09:08:51.608Z,15.10
2018-09-01T09:11:20.695Z,15.20
2018-09-01T09:13:49.799Z,15.10
2018-09-01T09:16:18.951Z,15.10
2018-09-01T09:18:48.239Z,15.20
2018-09-01T09:21:17.331Z,15.30
2018-09-01T09:23:46.456Z,15.30
2018-09-01T09:26:15.569Z,15.20
2018-09-01T09:28:44.639Z,15.20
2018-09-01T09:31:13.733Z,15.20
2018-09-01T09:33:42.913Z,15.20
2018-09-01T09:36:12.173Z,15.10
2018-09-01T09:38:41.253Z,15.10
2018-09-01T09:41:10.402Z,15.20
2018-09-01T09:43:39.518Z,15.20
2018-09-01T09:46:08.650Z,15.20
2018-09-01T09:48:37.743Z,15.10
2018-09-01T09:51:06.905Z,15.00
2018-09-01T09:53:36.037Z,15.00
2018-09-01T09:56:05.245Z,15.00
2018-09-01T09:58:34.539Z,15.00
2018-09-01T10:01:05.025Z,15.10
2018-09-01T10:03:36.231Z,15.20
2018-09-01T10:06:05.644Z,15.10
2018-09-01T10:08:34.757Z,15.10
2018-09-01T10:11:03.975Z,15.00
2018-09-01T10:13:33.010Z,15.10
2018-09-01T10:16:02.097Z,15.00
2018-09-01T10:18:31.225Z,15.00
2018-09-01T10:21:00.314Z,15.10
2018-09-01T10:23:29.418Z,15.10
2018-09-01T10:25:58.514Z,15.10
2018-09-01T10:28:27.646Z,15.10
2018-09-01T10:30:56.724Z,15.00
2018-09-01T10:33:25.849Z,15.00
2018-09-01T10:35:54.960Z,15.00
2018-09-01T10:38:24.157Z,15.00
2018-09-01T10:40:53.317Z,15.10
2018-09-01T10:43:22.453Z,15.20
2018-09-01T10:45:52.121Z,15.20
2018-09-01T10:48:21.269Z,15.20
2018-09-01T10:50:50.344Z,15.30
2018-09-01T10:53:19.439Z,15.30
2018-09-01T10:55:48.584Z,15.10
2018-09-01T10:58:17.727Z,15.10
2018-09-01T11:00:47.009Z,15.10
2018-09-01T11:03:16.157Z,15.10
2018-09-01T11:05:45.253Z,15.20
2018-09-01T11:08:14.351Z,15.10
2018-09-01T11:10:43.477Z,15.10
2018-09-01T11:13:12.606Z,15.00
2018-09-01T11:15:41.705Z,15.00
2018-09-01T11:18:10.797Z,15.00
2018-09-01T11:20:39.949Z,15.00
2018-09-01T11:23:08.990Z,15.00
2018-09-01T11:25:38.197Z,15.00
2018-09-01T11:28:07.735Z,15.00
2018-09-01T11:30:37.043Z,15.00
2018-09-01T11:33:06.245Z,15.00
2018-09-01T11:35:35.409Z,14.90
2018-09-01T11:38:04.497Z,14.90
2018-09-01T11:40:33.763Z,14.90
2018-09-01T11:43:02.961Z,14.90
2018-09-01T11:45:31.902Z,14.80
2018-09-01T11:48:01.019Z,14.80
2018-09-01T11:50:30.251Z,15.00
2018-09-01T11:52:59.366Z,15.10
2018-09-01T11:55:28.474Z,15.20
2018-09-01T11:57:57.578Z,15.30
2018-09-01T12:00:26.689Z,15.30
2018-09-01T12:02:56.227Z,15.20
2018-09-01T12:05:25.301Z,15.30
2018-09-01T12:07:54.466Z,15.50
2018-09-01T12:10:23.732Z,15.60
2018-09-01T12:12:52.961Z,15.80
2018-09-01T12:15:22.092Z,16.00
2018-09-01T12:17:51.214Z,16.10
2018-09-01T12:20:20.296Z,16.30
2018-09-01T12:22:49.398Z,16.40
2018-09-01T12:25:18.554Z,16.50
2018-09-01T12:27:47.767Z,16.60
2018-09-01T12:30:16.822Z,16.60
2018-09-01T12:32:45.919Z,16.60
2018-09-01T12:35:15.446Z,16.50
2018-09-01T12:37:44.535Z,16.50
2018-09-01T12:40:14.004Z,16.60
2018-09-01T12:42:43.168Z,16.50
2018-09-01T12:45:12.237Z,16.60
2018-09-01T12:47:41.324Z,16.60
2018-09-01T12:50:10.426Z,16.60
2018-09-01T12:52:39.598Z,16.50
2018-09-01T12:55:08.728Z,16.50
2018-09-01T12:57:37.849Z,16.50
2018-09-01T13:00:07.093Z,16.60
2018-09-01T13:02:36.240Z,16.60
2018-09-01T13:05:06.125Z,16.50
2018-09-01T13:07:35.256Z,16.60
2018-09-01T13:10:04.454Z,16.60
2018-09-01T13:12:33.526Z,16.60
2018-09-01T13:15:02.658Z,16.60
2018-09-01T13:17:31.753Z,16.60
2018-09-01T13:20:00.933Z,16.80
2018-09-01T13:22:30.090Z,16.80
2018-09-01T13:24:59.170Z,16.80
2018-09-01T13:27:30.286Z,16.80
2018-09-01T13:29:59.424Z,16.80
2018-09-01T13:32:28.493Z,16.90
2018-09-01T13:34:57.658Z,16.90
2018-09-01T13:37:26.789Z,16.90
2018-09-01T13:39:55.971Z,16.90
2018-09-01T13:42:25.073Z,16.90
2018-09-01T13:44:54.161Z,16.90
2018-09-01T13:47:23.285Z,16.90
2018-09-01T13:49:52.419Z,17.00
2018-09-01T13:52:21.538Z,17.10
2018-09-01T13:54:50.732Z,17.10
2018-09-01T13:57:19.844Z,17.10
2018-09-01T13:59:48.927Z,17.20
2018-09-01T14:02:17.993Z,17.20
2018-09-01T14:04:47.073Z,17.10
2018-09-01T14:07:16.265Z,17.10
2018-09-01T14:09:45.399Z,17.10
2018-09-01T14:12:14.519Z,17.10
2018-09-01T14:14:43.771Z,17.20
2018-09-01T14:17:12.785Z,17.30
2018-09-01T14:19:41.869Z,17.30
2018-09-01T14:22:10.994Z,17.20
2018-09-01T14:24:40.133Z,17.20
2018-09-01T14:27:09.229Z,17.10
2018-09-01T14:29:38.304Z,17.00
2018-09-01T14:32:07.420Z,17.00
2018-09-01T14:34:36.503Z,17.10
2018-09-01T14:37:06.011Z,17.00
2018-09-01T14:39:35.107Z,17.00
2018-09-01T14:42:04.302Z,17.10
2018-09-01T14:44:33.398Z,17.00
2018-09-01T14:47:02.594Z,17.10
2018-09-01T14:49:31.695Z,17.20
2018-09-01T14:52:00.766Z,17.20
2018-09-01T14:54:29.890Z,17.10
2018-09-01T14:56:59.017Z,17.10
2018-09-01T14:59:28.176Z,16.90
2018-09-01T15:01:57.301Z,16.80
2018-09-01T15:04:26.410Z,16.60
2018-09-01T15:06:55.655Z,16.30
2018-09-01T15:09:25.451Z,16.10
2018-09-01T15:11:54.578Z,16.20
2018-09-01T15:14:23.725Z,16.10
2018-09-01T15:16:52.953Z,16.10
2018-09-01T15:19:22.351Z,16.00
2018-09-01T15:21:52.577Z,16.00
2018-09-01T15:24:21.769Z,16.00
2018-09-01T15:26:50.838Z,16.00
2018-09-01T15:29:19.917Z,16.00
2018-09-01T15:31:49.018Z,16.00
2018-09-01T15:34:18.158Z,16.00
2018-09-01T15:36:47.309Z,16.00
2018-09-01T15:39:16.394Z,16.00
2018-09-01T15:41:45.468Z,16.00
2018-09-01T15:44:14.721Z,15.90
2018-09-01T15:46:43.780Z,15.90
2018-09-01T15:49:12.874Z,15.80
2018-09-01T15:51:41.969Z,15.80
2018-09-01T15:54:11.089Z,15.80
2018-09-01T15:56:40.250Z,15.80
2018-09-01T15:59:09.412Z,15.80
2018-09-01T16:01:38.490Z,15.80
2018-09-01T16:04:07.608Z,15.80
2018-09-01T16:06:36.680Z,15.70
2018-09-01T16:09:06.602Z,15.70
2018-09-01T16:11:36.026Z,15.70
2018-09-01T16:14:05.125Z,15.70
2018-09-01T16:16:34.299Z,15.70
2018-09-01T16:19:03.518Z,15.60
2018-09-01T16:21:32.625Z,15.60
2018-09-01T16:24:01.728Z,15.60
2018-09-01T16:26:30.848Z,15.50
2018-09-01T16:28:59.916Z,15.50
2018-09-01T16:31:29.074Z,15.50
2018-09-01T16:33:58.231Z,15.60
2018-09-01T16:36:27.376Z,15.60
2018-09-01T16:38:56.526Z,15.70
2018-09-01T16:41:25.675Z,15.70
2018-09-01T16:43:54.782Z,15.80
2018-09-01T16:46:23.928Z,15.80
2018-09-01T16:48:53.076Z,15.80
2018-09-01T16:51:22.147Z,15.80
2018-09-01T16:53:51.214Z,15.80
2018-09-01T16:56:20.336Z,15.70
2018-09-01T16:58:49.409Z,15.70
2018-09-01T17:01:18.480Z,15.70
2018-09-01T17:03:47.609Z,15.60
2018-09-01T17:06:16.717Z,15.50
2018-09-01T17:08:45.830Z,15.40
2018-09-01T17:11:14.901Z,15.30
2018-09-01T17:13:44.094Z,15.20
2018-09-01T17:16:13.184Z,15.20
2018-09-01T17:18:42.531Z,15.20
2018-09-01T17:21:11.735Z,15.20
2018-09-01T17:26:34.878Z,15.10
2018-09-01T17:29:04.599Z,15.10
2018-09-01T17:31:33.670Z,15.10
2018-09-01T17:34:02.753Z,15.10
2018-09-01T17:36:31.860Z,15.00
2018-09-01T17:39:00.945Z,14.90
2018-09-01T17:41:30.112Z,14.80
2018-09-01T17:43:59.138Z,14.80
2018-09-01T17:46:28.217Z,14.80
2018-09-01T17:48:57.330Z,14.70
2018-09-01T17:51:26.452Z,14.70
2018-09-01T17:53:55.567Z,14.70
2018-09-01T17:56:24.718Z,14.60
2018-09-01T17:58:53.847Z,14.60
2018-09-01T18:01:24.434Z,14.50
2018-09-01T18:03:54.038Z,14.50
2018-09-01T18:06:23.394Z,14.50
2018-09-01T18:08:52.840Z,14.40
2018-09-01T18:11:21.912Z,14.50
2018-09-01T18:13:51.564Z,14.40
2018-09-01T18:16:20.768Z,14.40
2018-09-01T18:18:49.838Z,14.40
2018-09-01T18:21:19.043Z,14.40
2018-09-01T18:23:48.137Z,14.30
2018-09-01T18:26:17.238Z,14.30
2018-09-01T18:28:46.332Z,14.30
2018-09-01T18:31:15.498Z,14.20
2018-09-01T18:33:44.591Z,14.30
2018-09-01T18:36:13.686Z,14.20
2018-09-01T18:38:42.829Z,14.20
2018-09-01T18:41:11.905Z,14.10
2018-09-01T18:43:40.950Z,14.00
2018-09-01T18:46:10.074Z,14.00
2018-09-01T18:48:39.178Z,14.00
2018-09-01T18:51:08.293Z,13.90
2018-09-01T18:53:37.466Z,13.80
2018-09-01T18:56:06.646Z,13.90
2018-09-01T18:58:35.774Z,13.80
2018-09-01T19:01:05.294Z,13.80
2018-09-01T19:03:34.486Z,13.80
2018-09-01T19:06:03.586Z,13.80
2018-09-01T19:08:32.936Z,13.70
2018-09-01T19:11:02.079Z,13.70
2018-09-01T19:13:31.353Z,13.70
2018-09-01T19:16:01.539Z,13.80
2018-09-01T19:18:30.756Z,13.70
2018-09-01T19:21:00.107Z,13.70
2018-09-01T19:23:29.345Z,13.70
2018-09-01T19:25:58.492Z,13.80
2018-09-01T19:28:27.635Z,13.80
2018-09-01T19:30:56.786Z,13.80
2018-09-01T19:33:25.922Z,13.70
2018-09-01T19:35:55.066Z,13.70
2018-09-01T19:38:24.194Z,13.70
2018-09-01T19:40:53.280Z,13.60
2018-09-01T19:43:22.424Z,13.60
2018-09-01T19:45:51.547Z,13.60
2018-09-01T19:48:20.710Z,13.60
2018-09-01T19:50:49.872Z,13.60
2018-09-01T19:53:18.985Z,13.60
2018-09-01T19:55:48.224Z,13.60
2018-09-01T19:58:17.474Z,13.50
2018-09-01T20:00:46.663Z,13.60
2018-09-01T20:03:15.908Z,13.60
2018-09-01T20:05:44.970Z,13.60
2018-09-01T20:08:14.088Z,13.70
2018-09-01T20:10:43.193Z,13.60
2018-09-01T20:13:12.326Z,13.60
2018-09-01T20:15:41.561Z,13.50
2018-09-01T20:18:10.890Z,13.50
2018-09-01T20:20:40.027Z,13.60
2018-09-01T20:23:09.157Z,13.50
2018-09-01T20:25:38.314Z,13.50
2018-09-01T20:28:07.820Z,13.50
2018-09-01T20:30:36.951Z,13.50
2018-09-01T20:33:06.080Z,13.50
2018-09-01T20:35:40.551Z,13.50
2018-09-01T20:38:09.657Z,13.50
2018-09-01T20:40:38.803Z,13.50
2018-09-01T20:43:08.045Z,13.50
2018-09-01T20:45:37.153Z,13.40
2018-09-01T20:48:06.272Z,13.50
2018-09-01T20:50:35.366Z,13.50
2018-09-01T20:53:04.495Z,13.40
2018-09-01T20:55:33.625Z,13.40
2018-09-01T20:58:02.755Z,13.50
2018-09-01T21:00:31.842Z,13.50
2018-09-01T21:03:00.943Z,13.50
2018-09-01T21:05:30.138Z,13.40
2018-09-01T21:07:59.341Z,13.50
2018-09-01T21:10:28.533Z,13.50
2018-09-01T21:12:57.709Z,13.40
2018-09-01T21:15:26.823Z,13.50
2018-09-01T21:17:55.939Z,13.50
2018-09-01T21:20:25.286Z,13.40
2018-09-01T21:22:54.492Z,13.40
2018-09-01T21:25:23.616Z,13.40
2018-09-01T21:27:52.719Z,13.40
2018-09-01T21:30:21.914Z,13.50
2018-09-01T21:32:51.212Z,13.50
2018-09-01T21:35:20.368Z,13.50
2018-09-01T21:37:49.969Z,13.40
2018-09-01T21:40:19.063Z,13.40
2018-09-01T21:42:48.275Z,13.40
2018-09-01T21:45:17.414Z,13.30
2018-09-01T21:47:46.552Z,13.30
2018-09-01T21:50:15.685Z,13.30
2018-09-01T21:52:44.802Z,13.30
2018-09-01T21:55:13.894Z,13.40
2018-09-01T21:57:42.993Z,13.40
2018-09-01T22:00:12.110Z,13.40
2018-09-01T22:02:41.203Z,13.40
2018-09-01T22:05:15.228Z,13.40
2018-09-01T22:07:44.511Z,13.40
2018-09-01T22:10:13.641Z,13.30
2018-09-01T22:12:42.748Z,13.30
2018-09-01T22:15:11.830Z,13.30
2018-09-01T22:17:40.939Z,13.30
2018-09-01T22:20:10.044Z,13.30
2018-09-01T22:22:39.477Z,13.30
2018-09-01T22:25:08.620Z,13.30
2018-09-01T22:27:37.723Z,13.30
2018-09-01T22:30:06.852Z,13.30
2018-09-01T22:32:35.960Z,13.30
2018-09-01T22:35:05.111Z,13.30
2018-09-01T22:37:34.175Z,13.30
2018-09-01T22:40:03.257Z,13.30
2018-09-01T22:42:32.380Z,13.30
2018-09-01T22:45:01.527Z,13.30
2018-09-01T22:47:32.188Z,13.30
2018-09-01T22:50:01.280Z,13.40
2018-09-01T22:52:30.377Z,13.30
2018-09-01T22:54:59.516Z,13.40
2018-09-01T22:57:28.633Z,13.30
2018-09-01T22:59:57.714Z,13.30
2018-09-01T23:02:26.814Z,13.40
2018-09-01T23:04:55.908Z,13.40
2018-09-01T23:07:25.025Z,13.40
2018-09-01T23:09:54.111Z,13.40
2018-09-01T23:12:23.213Z,13.40
2018-09-01T23:14:52.335Z,13.30
2018-09-01T23:17:21.607Z,13.30
2018-09-01T23:19:50.730Z,13.40
2018-09-01T23:22:19.834Z,13.40
2018-09-01T23:24:49.109Z,13.40
2018-09-01T23:27:18.201Z,13.40
2018-09-01T23:29:47.306Z,13.40
2018-09-01T23:32:16.415Z,13.40
2018-09-01T23:34:45.637Z,13.50
2018-09-01T23:37:14.759Z,13.40
2018-09-01T23:39:43.860Z,13.40
2018-09-01T23:42:12.979Z,13.40
2018-09-01T23:44:42.079Z,13.30
2018-09-01T23:47:11.263Z,13.30
2018-09-01T23:49:40.419Z,13.30
2018-09-01T23:52:09.508Z,13.30
2018-09-01T23:54:38.628Z,13.40
2018-09-01T23:57:07.718Z,13.40
2018-09-01T23:59:36.805Z,13.40
